sensor_id;sensor_type;location;lat;lon;timestamp;pressure;altitude;pressure_sealevel;temperature;humidity
17607;BME280;8922;52.240;20.980;2023-02-12T00:01:32;101484.56;;;2.35;68.63
17607;BME280;8922;52.240;20.980;2023-02-12T00:04:02;101480.22;;;2.33;68.78
17607;BME280;8922;52.240;20.980;2023-02-12T00:06:31;101481.81;;;2.31;69.35
17607;BME280;8922;52.240;20.980;2023-02-12T00:08:59;101491.94;;;2.29;69.98
17607;BME280;8922;52.240;20.980;2023-02-12T00:11:29;101494.34;;;2.26;70.09
17607;BME280;8922;52.240;20.980;2023-02-12T00:13:58;101503.69;;;2.27;69.70
17607;BME280;8922;52.240;20.980;2023-02-12T00:16:28;101508.06;;;2.30;69.56
17607;BME280;8922;52.240;20.980;2023-02-12T00:18:57;101509.09;;;2.33;69.49
17607;BME280;8922;52.240;20.980;2023-02-12T00:21:28;101524.25;;;2.32;69.84
17607;BME280;8922;52.240;20.980;2023-02-12T00:23:57;101528.13;;;2.24;69.21
17607;BME280;8922;52.240;20.980;2023-02-12T00:26:25;101533.81;;;2.18;69.15
17607;BME280;8922;52.240;20.980;2023-02-12T00:28:54;101535.09;;;2.10;69.08
17607;BME280;8922;52.240;20.980;2023-02-12T00:31:26;101542.63;;;2.07;67.97
17607;BME280;8922;52.240;20.980;2023-02-12T00:33:55;101546.59;;;2.02;68.37
17607;BME280;8922;52.240;20.980;2023-02-12T00:36:28;101542.16;;;1.98;67.73
17607;BME280;8922;52.240;20.980;2023-02-12T00:38:57;101538.59;;;1.94;68.63
17607;BME280;8922;52.240;20.980;2023-02-12T00:41:26;101537.69;;;1.92;67.82
17607;BME280;8922;52.240;20.980;2023-02-12T00:43:54;101542.66;;;1.90;67.59
17607;BME280;8922;52.240;20.980;2023-02-12T00:46:23;101541.00;;;1.91;68.39
17607;BME280;8922;52.240;20.980;2023-02-12T00:48:52;101551.16;;;1.91;67.94
17607;BME280;8922;52.240;20.980;2023-02-12T00:51:20;101553.72;;;1.91;68.74
17607;BME280;8922;52.240;20.980;2023-02-12T00:53:50;101561.31;;;1.91;68.38
17607;BME280;8922;52.240;20.980;2023-02-12T00:56:18;101559.59;;;1.90;68.74
17607;BME280;8922;52.240;20.980;2023-02-12T00:58:47;101568.91;;;1.89;67.93
17607;BME280;8922;52.240;20.980;2023-02-12T01:01:16;101573.03;;;1.87;68.12
17607;BME280;8922;52.240;20.980;2023-02-12T01:03:44;101567.88;;;1.86;67.68
17607;BME280;8922;52.240;20.980;2023-02-12T01:06:13;101589.88;;;1.85;67.64
17607;BME280;8922;52.240;20.980;2023-02-12T01:08:41;101584.69;;;1.84;67.89
17607;BME280;8922;52.240;20.980;2023-02-12T01:11:12;101590.69;;;1.84;68.34
17607;BME280;8922;52.240;20.980;2023-02-12T01:13:40;101587.41;;;1.87;68.22
17607;BME280;8922;52.240;20.980;2023-02-12T01:16:15;101592.47;;;1.87;67.69
17607;BME280;8922;52.240;20.980;2023-02-12T01:18:44;101597.81;;;1.91;68.00
17607;BME280;8922;52.240;20.980;2023-02-12T01:21:16;101595.69;;;2.01;68.83
17607;BME280;8922;52.240;20.980;2023-02-12T01:23:46;101601.88;;;2.06;67.71
17607;BME280;8922;52.240;20.980;2023-02-12T01:26:17;101608.72;;;2.07;67.70
17607;BME280;8922;52.240;20.980;2023-02-12T01:28:50;101617.94;;;2.05;66.51
17607;BME280;8922;52.240;20.980;2023-02-12T01:31:22;101622.84;;;2.02;67.17
17607;BME280;8922;52.240;20.980;2023-02-12T01:33:53;101626.91;;;1.98;67.07
17607;BME280;8922;52.240;20.980;2023-02-12T01:36:23;101633.53;;;1.94;67.07
17607;BME280;8922;52.240;20.980;2023-02-12T01:38:52;101633.31;;;1.90;66.84
17607;BME280;8922;52.240;20.980;2023-02-12T01:41:25;101631.56;;;1.89;66.59
17607;BME280;8922;52.240;20.980;2023-02-12T01:44:11;101630.69;;;1.88;66.58
17607;BME280;8922;52.240;20.980;2023-02-12T01:46:41;101628.31;;;1.91;66.98
17607;BME280;8922;52.240;20.980;2023-02-12T01:49:15;101630.09;;;1.94;66.68
17607;BME280;8922;52.240;20.980;2023-02-12T01:51:46;101627.72;;;1.97;66.26
17607;BME280;8922;52.240;20.980;2023-02-12T01:54:18;101621.84;;;1.98;66.87
17607;BME280;8922;52.240;20.980;2023-02-12T01:56:49;101632.75;;;1.96;66.11
17607;BME280;8922;52.240;20.980;2023-02-12T01:59:19;101646.22;;;1.94;66.38
17607;BME280;8922;52.240;20.980;2023-02-12T02:01:48;101651.31;;;1.94;65.52
17607;BME280;8922;52.240;20.980;2023-02-12T02:04:21;101654.66;;;1.93;65.82
17607;BME280;8922;52.240;20.980;2023-02-12T02:06:55;101651.19;;;1.91;66.06
17607;BME280;8922;52.240;20.980;2023-02-12T02:09:25;101659.03;;;1.96;66.02
17607;BME280;8922;52.240;20.980;2023-02-12T02:11:55;101668.41;;;1.97;66.42
17607;BME280;8922;52.240;20.980;2023-02-12T02:14:42;101672.44;;;1.93;66.08
17607;BME280;8922;52.240;20.980;2023-02-12T02:17:30;101675.00;;;1.93;65.29
17607;BME280;8922;52.240;20.980;2023-02-12T02:20:39;101686.84;;;1.93;65.88
17607;BME280;8922;52.240;20.980;2023-02-12T02:26:48;101689.31;;;1.91;65.29
17607;BME280;8922;52.240;20.980;2023-02-12T02:29:44;101701.94;;;1.90;65.22
17607;BME280;8922;52.240;20.980;2023-02-12T02:32:22;101707.09;;;1.91;65.37
17607;BME280;8922;52.240;20.980;2023-02-12T02:34:57;101729.97;;;1.91;64.96
17607;BME280;8922;52.240;20.980;2023-02-12T02:37:31;101723.94;;;1.89;65.10
17607;BME280;8922;52.240;20.980;2023-02-12T02:40:12;101725.84;;;1.93;65.58
17607;BME280;8922;52.240;20.980;2023-02-12T02:42:46;101730.03;;;1.93;64.53
17607;BME280;8922;52.240;20.980;2023-02-12T02:45:24;101730.75;;;1.90;64.77
17607;BME280;8922;52.240;20.980;2023-02-12T02:48:01;101730.03;;;1.93;64.55
17607;BME280;8922;52.240;20.980;2023-02-12T02:50:34;101737.59;;;1.91;64.71
17607;BME280;8922;52.240;20.980;2023-02-12T02:53:10;101734.25;;;1.92;64.64
17607;BME280;8922;52.240;20.980;2023-02-12T02:55:44;101748.72;;;1.93;65.00
17607;BME280;8922;52.240;20.980;2023-02-12T02:58:17;101755.31;;;1.90;65.24
17607;BME280;8922;52.240;20.980;2023-02-12T03:00:52;101767.38;;;1.94;64.97
17607;BME280;8922;52.240;20.980;2023-02-12T03:03:29;101776.84;;;1.97;64.80
17607;BME280;8922;52.240;20.980;2023-02-12T03:06:05;101783.75;;;1.99;65.19
17607;BME280;8922;52.240;20.980;2023-02-12T03:08:39;101795.81;;;2.03;64.65
17607;BME280;8922;52.240;20.980;2023-02-12T03:11:13;101784.91;;;2.06;65.24
17607;BME280;8922;52.240;20.980;2023-02-12T03:13:46;101797.63;;;2.06;64.40
17607;BME280;8922;52.240;20.980;2023-02-12T03:16:19;101812.00;;;2.05;63.94
17607;BME280;8922;52.240;20.980;2023-02-12T03:18:53;101818.69;;;2.03;64.42
17607;BME280;8922;52.240;20.980;2023-02-12T03:21:29;101820.22;;;2.00;63.79
17607;BME280;8922;52.240;20.980;2023-02-12T03:24:03;101829.41;;;1.98;63.42
17607;BME280;8922;52.240;20.980;2023-02-12T03:26:42;101824.03;;;1.91;63.63
17607;BME280;8922;52.240;20.980;2023-02-12T03:29:12;101819.56;;;1.87;63.30
17607;BME280;8922;52.240;20.980;2023-02-12T03:31:54;101831.38;;;1.87;63.06
17607;BME280;8922;52.240;20.980;2023-02-12T03:34:32;101839.59;;;1.81;62.67
17607;BME280;8922;52.240;20.980;2023-02-12T03:37:06;101847.91;;;1.79;62.81
17607;BME280;8922;52.240;20.980;2023-02-12T03:39:44;101845.94;;;1.73;63.47
17607;BME280;8922;52.240;20.980;2023-02-12T03:42:26;101853.22;;;1.67;63.33
17607;BME280;8922;52.240;20.980;2023-02-12T03:45:03;101851.31;;;1.63;62.82
17607;BME280;8922;52.240;20.980;2023-02-12T03:47:43;101863.03;;;1.61;62.87
17607;BME280;8922;52.240;20.980;2023-02-12T03:50:18;101871.47;;;1.60;63.11
17607;BME280;8922;52.240;20.980;2023-02-12T03:52:50;101866.38;;;1.60;63.25
17607;BME280;8922;52.240;20.980;2023-02-12T03:55:19;101879.09;;;1.60;63.54
17607;BME280;8922;52.240;20.980;2023-02-12T03:57:53;101896.06;;;1.61;63.42
17607;BME280;8922;52.240;20.980;2023-02-12T04:00:25;101887.56;;;1.60;63.40
17607;BME280;8922;52.240;20.980;2023-02-12T04:02:54;101891.97;;;1.63;63.62
17607;BME280;8922;52.240;20.980;2023-02-12T04:05:26;101886.94;;;1.64;63.21
17607;BME280;8922;52.240;20.980;2023-02-12T04:07:57;101891.34;;;1.67;63.37
17607;BME280;8922;52.240;20.980;2023-02-12T04:10:31;101888.78;;;1.67;63.21
17607;BME280;8922;52.240;20.980;2023-02-12T04:13:15;101896.41;;;1.67;63.00
17607;BME280;8922;52.240;20.980;2023-02-12T04:16:05;101897.22;;;1.66;62.55
17607;BME280;8922;52.240;20.980;2023-02-12T04:18:42;101903.25;;;1.68;62.64
17607;BME280;8922;52.240;20.980;2023-02-12T04:21:26;101897.03;;;1.63;63.08
17607;BME280;8922;52.240;20.980;2023-02-12T04:24:05;101903.69;;;1.61;62.52
17607;BME280;8922;52.240;20.980;2023-02-12T04:26:47;101904.50;;;1.60;62.80
17607;BME280;8922;52.240;20.980;2023-02-12T04:29:21;101904.38;;;1.58;62.64
17607;BME280;8922;52.240;20.980;2023-02-12T04:31:57;101902.47;;;1.54;62.75
17607;BME280;8922;52.240;20.980;2023-02-12T04:34:36;101909.34;;;1.55;62.87
17607;BME280;8922;52.240;20.980;2023-02-12T04:37:14;101908.47;;;1.55;62.42
17607;BME280;8922;52.240;20.980;2023-02-12T04:39:44;101911.94;;;1.57;62.76
17607;BME280;8922;52.240;20.980;2023-02-12T04:42:13;101911.94;;;1.57;63.03
17607;BME280;8922;52.240;20.980;2023-02-12T04:44:43;101918.75;;;1.58;62.93
17607;BME280;8922;52.240;20.980;2023-02-12T04:47:12;101913.69;;;1.58;62.54
17607;BME280;8922;52.240;20.980;2023-02-12T04:49:41;101914.56;;;1.58;63.12
17607;BME280;8922;52.240;20.980;2023-02-12T04:52:11;101930.25;;;1.66;63.03
17607;BME280;8922;52.240;20.980;2023-02-12T04:54:39;101932.84;;;1.67;63.22
17607;BME280;8922;52.240;20.980;2023-02-12T04:57:08;101932.06;;;1.68;63.06
17607;BME280;8922;52.240;20.980;2023-02-12T04:59:37;101933.84;;;1.69;62.96
17607;BME280;8922;52.240;20.980;2023-02-12T05:02:05;101938.00;;;1.69;62.69
17607;BME280;8922;52.240;20.980;2023-02-12T05:04:33;101949.06;;;1.69;63.03
17607;BME280;8922;52.240;20.980;2023-02-12T05:07:02;101956.53;;;1.66;62.64
17607;BME280;8922;52.240;20.980;2023-02-12T05:09:31;101948.72;;;1.63;63.01
17607;BME280;8922;52.240;20.980;2023-02-12T05:12:00;101970.63;;;1.61;62.89
17607;BME280;8922;52.240;20.980;2023-02-12T05:14:29;101970.63;;;1.61;62.71
17607;BME280;8922;52.240;20.980;2023-02-12T05:16:57;101984.06;;;1.59;62.79
17607;BME280;8922;52.240;20.980;2023-02-12T05:19:26;101983.25;;;1.60;62.70
17607;BME280;8922;52.240;20.980;2023-02-12T05:21:54;101983.31;;;1.61;62.90
17607;BME280;8922;52.240;20.980;2023-02-12T05:24:23;101993.78;;;1.66;62.58
17607;BME280;8922;52.240;20.980;2023-02-12T05:26:53;101991.31;;;1.67;62.64
17607;BME280;8922;52.240;20.980;2023-02-12T05:29:22;101987.00;;;1.66;62.45
17607;BME280;8922;52.240;20.980;2023-02-12T05:31:50;101990.19;;;1.62;62.23
17607;BME280;8922;52.240;20.980;2023-02-12T05:34:19;102003.56;;;1.60;62.75
17607;BME280;8922;52.240;20.980;2023-02-12T05:36:47;102003.22;;;1.54;62.42
17607;BME280;8922;52.240;20.980;2023-02-12T05:39:16;102008.13;;;1.51;63.07
17607;BME280;8922;52.240;20.980;2023-02-12T05:41:44;102012.25;;;1.49;63.21
17607;BME280;8922;52.240;20.980;2023-02-12T05:44:14;102016.19;;;1.43;63.40
17607;BME280;8922;52.240;20.980;2023-02-12T05:46:43;102016.03;;;1.40;62.93
17607;BME280;8922;52.240;20.980;2023-02-12T05:49:11;102032.22;;;1.42;63.73
17607;BME280;8922;52.240;20.980;2023-02-12T05:51:40;102037.41;;;1.44;63.83
17607;BME280;8922;52.240;20.980;2023-02-12T05:54:09;102035.13;;;1.49;63.49
17607;BME280;8922;52.240;20.980;2023-02-12T05:56:43;102029.16;;;1.48;63.73
17607;BME280;8922;52.240;20.980;2023-02-12T05:59:16;102040.38;;;1.52;62.99
17607;BME280;8922;52.240;20.980;2023-02-12T06:01:46;102044.06;;;1.57;63.04
17607;BME280;8922;52.240;20.980;2023-02-12T06:04:19;102046.78;;;1.60;63.26
17607;BME280;8922;52.240;20.980;2023-02-12T06:06:50;102059.66;;;1.63;62.73
17607;BME280;8922;52.240;20.980;2023-02-12T06:09:18;102066.66;;;1.67;63.24
17607;BME280;8922;52.240;20.980;2023-02-12T06:11:47;102063.50;;;1.71;63.04
17607;BME280;8922;52.240;20.980;2023-02-12T06:14:18;102080.66;;;1.75;63.06
17607;BME280;8922;52.240;20.980;2023-02-12T06:16:50;102087.50;;;1.76;62.47
17607;BME280;8922;52.240;20.980;2023-02-12T06:19:19;102089.59;;;1.83;62.43
17607;BME280;8922;52.240;20.980;2023-02-12T06:21:48;102090.47;;;1.84;62.10
17607;BME280;8922;52.240;20.980;2023-02-12T06:24:17;102093.63;;;1.80;62.06
17607;BME280;8922;52.240;20.980;2023-02-12T06:26:48;102089.16;;;1.76;62.10
17607;BME280;8922;52.240;20.980;2023-02-12T06:29:19;102091.53;;;1.73;62.58
17607;BME280;8922;52.240;20.980;2023-02-12T06:31:48;102095.41;;;1.66;62.29
17607;BME280;8922;52.240;20.980;2023-02-12T06:34:17;102100.13;;;1.60;61.84
17607;BME280;8922;52.240;20.980;2023-02-12T06:36:46;102100.56;;;1.53;61.91
17607;BME280;8922;52.240;20.980;2023-02-12T06:39:16;102106.06;;;1.45;62.02
17607;BME280;8922;52.240;20.980;2023-02-12T06:41:45;102097.38;;;1.42;61.97
17607;BME280;8922;52.240;20.980;2023-02-12T06:44:13;102098.19;;;1.41;62.38
17607;BME280;8922;52.240;20.980;2023-02-12T06:46:43;102105.81;;;1.41;62.12
17607;BME280;8922;52.240;20.980;2023-02-12T06:49:12;102105.81;;;1.41;62.33
17607;BME280;8922;52.240;20.980;2023-02-12T06:51:42;102107.81;;;1.47;62.53
17607;BME280;8922;52.240;20.980;2023-02-12T06:54:13;102107.38;;;1.54;62.01
17607;BME280;8922;52.240;20.980;2023-02-12T06:56:43;102110.97;;;1.57;61.50
17607;BME280;8922;52.240;20.980;2023-02-12T06:59:13;102112.63;;;1.57;61.93
17607;BME280;8922;52.240;20.980;2023-02-12T07:01:43;102113.78;;;1.62;61.78
17607;BME280;8922;52.240;20.980;2023-02-12T07:04:12;102116.16;;;1.74;62.05
17607;BME280;8922;52.240;20.980;2023-02-12T07:06:41;102120.28;;;1.86;61.89
17607;BME280;8922;52.240;20.980;2023-02-12T07:09:10;102119.66;;;2.05;61.85
17607;BME280;8922;52.240;20.980;2023-02-12T07:11:39;102126.75;;;2.26;60.83
17607;BME280;8922;52.240;20.980;2023-02-12T07:14:13;102128.78;;;2.48;60.85
17607;BME280;8922;52.240;20.980;2023-02-12T07:16:43;102134.78;;;2.64;60.06
17607;BME280;8922;52.240;20.980;2023-02-12T07:19:14;102141.59;;;2.80;58.81
17607;BME280;8922;52.240;20.980;2023-02-12T07:21:44;102144.56;;;2.88;58.08
17607;BME280;8922;52.240;20.980;2023-02-12T07:24:13;102144.22;;;2.98;57.89
17607;BME280;8922;52.240;20.980;2023-02-12T07:26:42;102142.25;;;3.09;56.53
17607;BME280;8922;52.240;20.980;2023-02-12T07:29:11;102137.31;;;3.12;57.14
17607;BME280;8922;52.240;20.980;2023-02-12T07:31:40;102141.28;;;3.23;56.93
17607;BME280;8922;52.240;20.980;2023-02-12T07:34:10;102133.28;;;3.32;56.26
17607;BME280;8922;52.240;20.980;2023-02-12T07:36:38;102135.72;;;3.47;56.08
17607;BME280;8922;52.240;20.980;2023-02-12T07:39:11;102120.28;;;3.78;56.00
17607;BME280;8922;52.240;20.980;2023-02-12T07:41:39;102128.56;;;4.08;55.39
17607;BME280;8922;52.240;20.980;2023-02-12T07:44:11;102126.66;;;4.22;54.63
17607;BME280;8922;52.240;20.980;2023-02-12T07:46:42;102133.16;;;4.33;53.83
17607;BME280;8922;52.240;20.980;2023-02-12T07:49:18;102143.00;;;4.43;52.99
17607;BME280;8922;52.240;20.980;2023-02-12T07:51:47;102138.31;;;4.52;52.77
17607;BME280;8922;52.240;20.980;2023-02-12T07:54:16;102142.19;;;4.62;52.63
17607;BME280;8922;52.240;20.980;2023-02-12T07:56:45;102150.03;;;4.67;52.02
17607;BME280;8922;52.240;20.980;2023-02-12T07:59:17;102148.81;;;4.76;51.96
17607;BME280;8922;52.240;20.980;2023-02-12T08:01:49;102145.56;;;4.80;51.09
17607;BME280;8922;52.240;20.980;2023-02-12T08:04:22;102150.38;;;4.92;51.74
17607;BME280;8922;52.240;20.980;2023-02-12T08:06:53;102151.53;;;4.99;50.62
17607;BME280;8922;52.240;20.980;2023-02-12T08:09:24;102146.56;;;5.02;50.33
17607;BME280;8922;52.240;20.980;2023-02-12T08:11:53;102157.44;;;5.17;50.60
17607;BME280;8922;52.240;20.980;2023-02-12T08:14:22;102164.38;;;5.39;50.47
17607;BME280;8922;52.240;20.980;2023-02-12T08:16:51;102167.00;;;5.60;49.75
17607;BME280;8922;52.240;20.980;2023-02-12T08:19:21;102167.66;;;5.75;49.40
17607;BME280;8922;52.240;20.980;2023-02-12T08:21:54;102167.47;;;5.92;49.15
17607;BME280;8922;52.240;20.980;2023-02-12T08:24:23;102172.47;;;6.08;48.54
17607;BME280;8922;52.240;20.980;2023-02-12T08:26:52;102171.06;;;6.16;47.49
17607;BME280;8922;52.240;20.980;2023-02-12T08:29:23;102171.13;;;6.18;47.44
17607;BME280;8922;52.240;20.980;2023-02-12T08:31:55;102178.88;;;6.19;47.51
17607;BME280;8922;52.240;20.980;2023-02-12T08:34:27;102171.00;;;6.15;46.85
17607;BME280;8922;52.240;20.980;2023-02-12T08:36:57;102177.75;;;6.13;46.87
17607;BME280;8922;52.240;20.980;2023-02-12T08:39:28;102180.09;;;6.29;47.22
17607;BME280;8922;52.240;20.980;2023-02-12T08:41:58;102169.97;;;6.53;46.84
17607;BME280;8922;52.240;20.980;2023-02-12T08:44:27;102170.97;;;6.79;46.82
17607;BME280;8922;52.240;20.980;2023-02-12T08:46:56;102166.81;;;7.05;45.59
17607;BME280;8922;52.240;20.980;2023-02-12T08:49:28;102159.75;;;7.22;45.38
17607;BME280;8922;52.240;20.980;2023-02-12T08:51:59;102159.97;;;7.52;45.44
17607;BME280;8922;52.240;20.980;2023-02-12T08:54:29;102162.09;;;7.64;44.04
17607;BME280;8922;52.240;20.980;2023-02-12T08:57:00;102152.59;;;7.61;44.47
17607;BME280;8922;52.240;20.980;2023-02-12T08:59:29;102159.09;;;7.52;44.19
17607;BME280;8922;52.240;20.980;2023-02-12T09:01:58;102173.72;;;7.54;44.50
17607;BME280;8922;52.240;20.980;2023-02-12T09:04:29;102178.94;;;7.57;44.50
17607;BME280;8922;52.240;20.980;2023-02-12T09:06:57;102177.22;;;7.56;44.50
17607;BME280;8922;52.240;20.980;2023-02-12T09:09:26;102178.72;;;8.01;46.03
17607;BME280;8922;52.240;20.980;2023-02-12T09:11:54;102179.06;;;10.55;43.46
17607;BME280;8922;52.240;20.980;2023-02-12T09:14:23;102174.06;;;13.86;37.78
17607;BME280;8922;52.240;20.980;2023-02-12T09:16:52;102162.78;;;17.01;30.90
17607;BME280;8922;52.240;20.980;2023-02-12T09:19:21;102165.16;;;19.87;25.63
17607;BME280;8922;52.240;20.980;2023-02-12T09:21:52;102166.75;;;22.41;22.32
17607;BME280;8922;52.240;20.980;2023-02-12T09:24:23;102165.31;;;24.55;18.47
17607;BME280;8922;52.240;20.980;2023-02-12T09:26:54;102172.88;;;25.57;17.69
17607;BME280;8922;52.240;20.980;2023-02-12T09:29:22;102169.25;;;26.43;17.20
17607;BME280;8922;52.240;20.980;2023-02-12T09:31:51;102172.75;;;27.22;16.14
17607;BME280;8922;52.240;20.980;2023-02-12T09:34:19;102167.91;;;28.37;15.22
17607;BME280;8922;52.240;20.980;2023-02-12T09:36:48;102169.56;;;29.68;14.05
17607;BME280;8922;52.240;20.980;2023-02-12T09:39:18;102173.41;;;30.66;12.95
17607;BME280;8922;52.240;20.980;2023-02-12T09:42:19;102171.88;;;31.46;12.81
17607;BME280;8922;52.240;20.980;2023-02-12T09:44:55;102171.09;;;32.49;12.11
17607;BME280;8922;52.240;20.980;2023-02-12T09:47:34;102174.19;;;33.18;11.44
17607;BME280;8922;52.240;20.980;2023-02-12T09:50:23;102181.56;;;33.38;10.68
17607;BME280;8922;52.240;20.980;2023-02-12T09:52:55;102191.59;;;33.48;10.67
17607;BME280;8922;52.240;20.980;2023-02-12T09:55:30;102179.03;;;33.00;10.67
17607;BME280;8922;52.240;20.980;2023-02-12T09:58:02;102183.31;;;32.90;10.62
17607;BME280;8922;52.240;20.980;2023-02-12T10:00:34;102183.97;;;33.17;10.56
17607;BME280;8922;52.240;20.980;2023-02-12T10:03:10;102182.53;;;33.97;10.12
17607;BME280;8922;52.240;20.980;2023-02-12T10:05:44;102178.72;;;34.79;9.66
17607;BME280;8922;52.240;20.980;2023-02-12T10:14:46;102171.31;;;36.12;8.64
17607;BME280;8922;52.240;20.980;2023-02-12T10:17:28;102170.63;;;35.56;8.56
17607;BME280;8922;52.240;20.980;2023-02-12T10:20:32;102168.25;;;34.88;8.91
17607;BME280;8922;52.240;20.980;2023-02-12T10:23:33;102169.47;;;34.72;9.00
17607;BME280;8922;52.240;20.980;2023-02-12T10:26:15;102176.69;;;34.60;8.88
17607;BME280;8922;52.240;20.980;2023-02-12T10:28:47;102177.84;;;34.90;9.09
17607;BME280;8922;52.240;20.980;2023-02-12T10:31:23;102177.84;;;35.13;8.66
17607;BME280;8922;52.240;20.980;2023-02-12T10:33:56;102180.50;;;34.00;8.91
17607;BME280;8922;52.240;20.980;2023-02-12T10:36:38;102173.59;;;32.89;9.65
17607;BME280;8922;52.240;20.980;2023-02-12T10:39:14;102168.72;;;32.57;10.07
17607;BME280;8922;52.240;20.980;2023-02-12T10:42:02;102165.84;;;32.09;10.66
17607;BME280;8922;52.240;20.980;2023-02-12T10:44:37;102165.25;;;31.79;10.07
17607;BME280;8922;52.240;20.980;2023-02-12T10:47:05;102169.22;;;31.59;10.50
17607;BME280;8922;52.240;20.980;2023-02-12T10:49:34;102169.88;;;32.02;10.64
17607;BME280;8922;52.240;20.980;2023-02-12T10:52:14;102165.56;;;32.52;10.04
17607;BME280;8922;52.240;20.980;2023-02-12T10:54:47;102158.69;;;32.61;10.15
17607;BME280;8922;52.240;20.980;2023-02-12T10:57:22;102155.44;;;33.42;9.69
17607;BME280;8922;52.240;20.980;2023-02-12T10:59:56;102162.28;;;34.39;9.32
17607;BME280;8922;52.240;20.980;2023-02-12T11:03:04;102168.97;;;35.76;8.66
17607;BME280;8922;52.240;20.980;2023-02-12T11:05:35;102168.63;;;36.73;8.08
17607;BME280;8922;52.240;20.980;2023-02-12T11:08:05;102170.13;;;36.56;8.14
17607;BME280;8922;52.240;20.980;2023-02-12T11:10:38;102165.06;;;36.01;8.50
17607;BME280;8922;52.240;20.980;2023-02-12T11:13:23;102162.72;;;36.39;8.57
17607;BME280;8922;52.240;20.980;2023-02-12T11:15:54;102166.44;;;36.47;8.51
17607;BME280;8922;52.240;20.980;2023-02-12T11:18:25;102170.47;;;35.90;8.37
17607;BME280;8922;52.240;20.980;2023-02-12T11:20:56;102173.03;;;34.84;8.15
17607;BME280;8922;52.240;20.980;2023-02-12T11:23:28;102174.25;;;33.88;9.44
17607;BME280;8922;52.240;20.980;2023-02-12T11:26:00;102172.84;;;34.07;9.19
17607;BME280;8922;52.240;20.980;2023-02-12T11:28:30;102180.06;;;34.40;9.02
17607;BME280;8922;52.240;20.980;2023-02-12T11:31:02;102173.13;;;33.91;9.17
17607;BME280;8922;52.240;20.980;2023-02-12T11:33:33;102166.75;;;33.58;9.49
17607;BME280;8922;52.240;20.980;2023-02-12T11:36:11;102156.59;;;33.86;9.65
17607;BME280;8922;52.240;20.980;2023-02-12T11:38:50;102153.28;;;34.18;9.31
17607;BME280;8922;52.240;20.980;2023-02-12T11:41:28;102143.28;;;34.08;9.43
17607;BME280;8922;52.240;20.980;2023-02-12T11:44:01;102147.56;;;33.76;9.31
17607;BME280;8922;52.240;20.980;2023-02-12T11:46:38;102143.63;;;33.09;9.60
17607;BME280;8922;52.240;20.980;2023-02-12T11:49:13;102146.50;;;32.69;9.98
17607;BME280;8922;52.240;20.980;2023-02-12T11:51:46;102134.69;;;32.98;9.96
17607;BME280;8922;52.240;20.980;2023-02-12T11:54:21;102134.72;;;32.85;10.06
17607;BME280;8922;52.240;20.980;2023-02-12T11:56:51;102134.91;;;32.94;10.16
17607;BME280;8922;52.240;20.980;2023-02-12T11:59:32;102131.63;;;33.39;9.73
17607;BME280;8922;52.240;20.980;2023-02-12T12:02:17;102141.00;;;33.80;9.40
17607;BME280;8922;52.240;20.980;2023-02-12T12:04:57;102133.81;;;34.38;9.32
17607;BME280;8922;52.240;20.980;2023-02-12T12:07:33;102149.25;;;34.79;8.64
17607;BME280;8922;52.240;20.980;2023-02-12T12:10:11;102138.09;;;33.83;9.13
17607;BME280;8922;52.240;20.980;2023-02-12T12:12:44;102147.97;;;31.17;10.71
17607;BME280;8922;52.240;20.980;2023-02-12T12:15:19;102145.72;;;28.38;12.42
17607;BME280;8922;52.240;20.980;2023-02-12T12:18:28;102142.03;;;25.58;14.07
17607;BME280;8922;52.240;20.980;2023-02-12T12:21:22;102138.75;;;23.02;16.44
17607;BME280;8922;52.240;20.980;2023-02-12T12:23:57;102135.78;;;21.11;18.18
17607;BME280;8922;52.240;20.980;2023-02-12T12:26:29;102136.06;;;19.50;19.97
17607;BME280;8922;52.240;20.980;2023-02-12T12:29:04;102143.00;;;18.06;21.66
17607;BME280;8922;52.240;20.980;2023-02-12T12:31:37;102144.53;;;17.01;23.31
17607;BME280;8922;52.240;20.980;2023-02-12T12:34:11;102152.56;;;16.00;24.46
17607;BME280;8922;52.240;20.980;2023-02-12T12:37:18;102148.88;;;14.93;25.75
17607;BME280;8922;52.240;20.980;2023-02-12T12:40:06;102157.00;;;14.13;26.79
17607;BME280;8922;52.240;20.980;2023-02-12T12:43:07;102156.38;;;13.42;28.08
17607;BME280;8922;52.240;20.980;2023-02-12T12:46:14;102145.22;;;12.78;29.06
17607;BME280;8922;52.240;20.980;2023-02-12T12:49:29;102150.44;;;12.20;30.00
17607;BME280;8922;52.240;20.980;2023-02-12T12:58:44;102150.88;;;10.63;33.70
17607;BME280;8922;52.240;20.980;2023-02-12T13:01:43;102150.81;;;10.24;34.63
17607;BME280;8922;52.240;20.980;2023-02-12T13:04:41;102144.69;;;9.84;35.82
17607;BME280;8922;52.240;20.980;2023-02-12T13:07:26;102141.97;;;9.46;36.62
17607;BME280;8922;52.240;20.980;2023-02-12T13:10:18;102147.22;;;9.17;36.86
17607;BME280;8922;52.240;20.980;2023-02-12T13:13:13;102142.13;;;8.89;37.62
17607;BME280;8922;52.240;20.980;2023-02-12T13:15:51;102145.97;;;8.75;38.68
17607;BME280;8922;52.240;20.980;2023-02-12T13:18:42;102143.22;;;8.68;38.22
17607;BME280;8922;52.240;20.980;2023-02-12T13:21:31;102142.09;;;8.59;38.91
17607;BME280;8922;52.240;20.980;2023-02-12T13:24:06;102145.78;;;8.40;39.23
17607;BME280;8922;52.240;20.980;2023-02-12T13:26:47;102149.50;;;8.22;39.70
17607;BME280;8922;52.240;20.980;2023-02-12T13:29:19;102147.31;;;8.08;39.92
17607;BME280;8922;52.240;20.980;2023-02-12T13:31:54;102148.94;;;7.80;41.09
17607;BME280;8922;52.240;20.980;2023-02-12T13:34:26;102153.06;;;7.51;41.88
17607;BME280;8922;52.240;20.980;2023-02-12T13:37:00;102154.63;;;7.22;42.99
17607;BME280;8922;52.240;20.980;2023-02-12T13:39:34;102159.84;;;7.01;43.79
17607;BME280;8922;52.240;20.980;2023-02-12T13:42:16;102160.28;;;6.89;44.90
17607;BME280;8922;52.240;20.980;2023-02-12T13:44:56;102161.03;;;6.87;45.17
17607;BME280;8922;52.240;20.980;2023-02-12T13:47:31;102151.63;;;6.87;45.53
17607;BME280;8922;52.240;20.980;2023-02-12T13:50:19;102155.06;;;6.88;46.03